createdAt,value
2023-02-08T00:01:26.925Z,21.63
2023-02-08T00:03:55.444Z,21.27
2023-02-08T00:06:23.850Z,20.33
2023-02-08T00:08:53.497Z,27.30
2023-02-08T00:11:22.003Z,26.90
2023-02-08T00:13:50.390Z,22.07
2023-02-08T00:16:19.338Z,23.03
2023-02-08T00:18:47.699Z,23.07
2023-02-08T00:21:18.420Z,24.93
2023-02-08T00:23:47.480Z,23.77
2023-02-08T00:26:17.449Z,23.97
2023-02-08T00:28:45.792Z,25.00
2023-02-08T00:31:14.175Z,23.33
2023-02-08T00:33:42.553Z,22.30
2023-02-08T00:36:12.957Z,24.17
2023-02-08T00:38:41.243Z,29.27
2023-02-08T00:41:09.697Z,26.23
2023-02-08T00:43:39.363Z,22.83
2023-02-08T00:46:09.565Z,25.20
2023-02-08T00:48:37.903Z,23.47
2023-02-08T00:51:08.861Z,21.10
2023-02-08T00:53:38.474Z,24.37
2023-02-08T00:56:08.203Z,23.47
2023-02-08T00:58:38.067Z,22.93
2023-02-08T01:01:08.124Z,22.53
2023-02-08T01:03:38.711Z,23.53
2023-02-08T01:06:09.345Z,25.10
2023-02-08T01:08:38.267Z,23.60
2023-02-08T01:11:09.961Z,23.33
2023-02-08T01:13:40.221Z,23.27
2023-02-08T01:16:11.606Z,29.30
2023-02-08T01:18:40.745Z,24.27
2023-02-08T01:21:11.877Z,24.90
2023-02-08T01:23:40.951Z,24.27
2023-02-08T01:26:10.686Z,25.13
2023-02-08T01:28:40.726Z,20.83
2023-02-08T01:31:10.881Z,25.67
2023-02-08T01:33:39.647Z,24.80
2023-02-08T01:36:09.161Z,22.40
2023-02-08T01:38:37.824Z,22.63
2023-02-08T01:41:08.658Z,21.40
2023-02-08T01:44:10.151Z,27.23
2023-02-08T01:46:40.690Z,24.70
2023-02-08T01:49:17.458Z,22.07
2023-02-08T01:51:49.768Z,24.97
2023-02-08T01:54:21.041Z,20.87
2023-02-08T01:56:51.032Z,21.07
2023-02-08T01:59:37.580Z,27.57
2023-02-08T02:02:09.364Z,25.00
2023-02-08T02:04:37.718Z,25.00
2023-02-08T02:07:06.885Z,21.93
2023-02-08T02:09:42.598Z,22.93
2023-02-08T02:12:11.848Z,22.30
2023-02-08T02:14:41.701Z,20.10
2023-02-08T02:17:12.488Z,20.23
2023-02-08T02:19:51.448Z,23.60
2023-02-08T02:22:55.989Z,21.40
2023-02-08T02:26:18.636Z,22.83
2023-02-08T02:29:34.997Z,25.30
2023-02-08T02:32:20.416Z,21.90
2023-02-08T02:34:54.022Z,23.60
2023-02-08T02:37:41.353Z,23.77
2023-02-08T02:40:20.163Z,23.30
2023-02-08T02:43:19.580Z,24.53
2023-02-08T02:45:57.707Z,23.70
2023-02-08T02:48:34.821Z,24.80
2023-02-08T02:51:10.771Z,23.17
2023-02-08T02:53:49.519Z,23.33
2023-02-08T02:56:21.320Z,23.10
2023-02-08T02:58:50.868Z,24.23
2023-02-08T03:01:26.139Z,21.73
2023-02-08T03:03:56.045Z,24.57
2023-02-08T03:06:52.646Z,25.40
2023-02-08T03:10:00.983Z,26.73
2023-02-08T03:12:41.852Z,24.80
2023-02-08T03:15:25.095Z,24.17
2023-02-08T03:18:06.571Z,27.90
2023-02-08T03:20:40.476Z,22.63
2023-02-08T03:23:16.634Z,23.80
2023-02-08T03:25:52.488Z,23.07
2023-02-08T03:28:27.534Z,22.17
2023-02-08T03:31:08.662Z,23.07
2023-02-08T03:33:43.660Z,23.10
2023-02-08T03:36:19.340Z,25.60
2023-02-08T03:38:50.157Z,27.40
2023-02-08T03:41:25.046Z,21.57
2023-02-08T03:43:59.387Z,20.17
2023-02-08T03:46:33.338Z,23.20
2023-02-08T03:49:08.149Z,21.90
2023-02-08T03:51:40.660Z,21.93
2023-02-08T03:54:15.288Z,18.93
2023-02-08T03:56:49.764Z,21.80
2023-02-08T03:59:22.968Z,20.27
2023-02-08T04:01:56.864Z,22.87
2023-02-08T04:04:27.763Z,22.77
2023-02-08T04:06:57.498Z,22.70
2023-02-08T04:09:25.870Z,22.53
2023-02-08T04:11:54.148Z,18.33
2023-02-08T04:14:22.401Z,22.23
2023-02-08T04:16:50.687Z,20.20
2023-02-08T04:19:19.019Z,22.97
2023-02-08T04:21:47.329Z,22.97
2023-02-08T04:24:16.979Z,17.80
2023-02-08T04:26:45.272Z,18.37
2023-02-08T04:29:13.831Z,18.23
2023-02-08T04:31:42.189Z,16.50
2023-02-08T04:34:10.529Z,19.27
2023-02-08T04:36:38.778Z,19.50
2023-02-08T04:39:07.191Z,18.97
2023-02-08T04:41:36.836Z,19.67
2023-02-08T04:44:05.146Z,25.23
2023-02-08T04:46:33.456Z,20.93
2023-02-08T04:49:01.717Z,17.83
2023-02-08T04:51:29.956Z,26.50
2023-02-08T04:53:58.212Z,18.80
2023-02-08T04:56:26.468Z,21.53
2023-02-08T04:58:56.179Z,22.60
2023-02-08T05:01:24.534Z,18.23
2023-02-08T05:03:52.768Z,21.33
2023-02-08T05:06:21.055Z,23.00
2023-02-08T05:08:49.293Z,20.63
2023-02-08T05:11:23.075Z,23.23
2023-02-08T05:13:51.735Z,21.07
2023-02-08T05:16:21.550Z,24.40
2023-02-08T05:18:49.914Z,23.03
2023-02-08T05:21:18.202Z,19.90
2023-02-08T05:23:46.887Z,22.47
2023-02-08T05:26:15.229Z,23.87
2023-02-08T05:28:43.497Z,26.80
2023-02-08T05:31:13.907Z,26.43
2023-02-08T05:33:43.623Z,22.77
2023-02-08T05:36:12.108Z,25.67
2023-02-08T05:38:40.359Z,23.87
2023-02-08T05:41:08.679Z,24.17
2023-02-08T05:43:37.199Z,23.57
2023-02-08T05:46:05.824Z,21.03
2023-02-08T05:48:34.487Z,23.30
2023-02-08T05:51:04.242Z,24.53
2023-02-08T05:53:32.712Z,25.63
2023-02-08T05:56:00.970Z,26.53
2023-02-08T05:58:29.416Z,23.60
2023-02-08T06:00:57.990Z,27.73
2023-02-08T06:03:26.551Z,30.97
2023-02-08T06:05:54.815Z,32.27
2023-02-08T06:08:24.479Z,26.07
2023-02-08T06:10:52.716Z,27.33
2023-02-08T06:13:21.003Z,23.87
2023-02-08T06:15:49.235Z,23.70
2023-02-08T06:18:17.850Z,25.63
2023-02-08T06:20:46.148Z,23.17
2023-02-08T06:23:14.412Z,26.97
2023-02-08T06:25:44.032Z,21.43
2023-02-08T06:28:12.330Z,26.20
2023-02-08T06:30:41.018Z,26.23
2023-02-08T06:33:09.495Z,22.83
2023-02-08T06:35:38.067Z,26.17
2023-02-08T06:38:06.311Z,32.07
2023-02-08T06:40:34.606Z,29.07
2023-02-08T06:43:04.292Z,28.23
2023-02-08T06:45:32.598Z,24.00
2023-02-08T06:48:00.936Z,25.73
2023-02-08T06:50:29.224Z,28.80
2023-02-08T06:52:57.484Z,26.70
2023-02-08T06:55:25.748Z,29.03
2023-02-08T06:57:55.080Z,25.57
2023-02-08T07:00:25.293Z,25.83
2023-02-08T07:02:53.597Z,33.67
2023-02-08T07:05:21.866Z,26.20
2023-02-08T07:07:50.281Z,30.23
2023-02-08T07:10:18.809Z,26.47
2023-02-08T07:12:47.073Z,33.17
2023-02-08T07:15:15.349Z,27.80
2023-02-08T07:17:44.948Z,31.37
2023-02-08T07:20:13.834Z,28.07
2023-02-08T07:22:42.862Z,26.10
2023-02-08T07:25:11.568Z,28.23
2023-02-08T07:27:39.837Z,24.40
2023-02-08T07:30:09.704Z,31.00
2023-02-08T07:32:37.926Z,27.43
2023-02-08T07:35:08.718Z,26.93
2023-02-08T07:37:36.935Z,26.73
2023-02-08T07:40:05.560Z,28.10
2023-02-08T07:42:34.703Z,24.03
2023-02-08T07:45:04.330Z,28.80
2023-02-08T07:47:32.658Z,23.87
2023-02-08T07:50:00.942Z,25.13
2023-02-08T07:52:30.621Z,25.23
2023-02-08T07:54:58.856Z,28.67
2023-02-08T07:57:27.117Z,24.60
2023-02-08T07:59:55.375Z,24.87
2023-02-08T08:02:23.881Z,25.33
2023-02-08T08:04:54.103Z,23.33
2023-02-08T08:07:22.389Z,21.57
2023-02-08T08:09:52.049Z,23.10
2023-02-08T08:12:20.944Z,24.27
2023-02-08T08:14:49.232Z,22.07
2023-02-08T08:17:17.792Z,26.00
2023-02-08T08:19:46.161Z,23.17
2023-02-08T08:22:14.411Z,21.63
2023-02-08T08:24:42.652Z,22.43
2023-02-08T08:27:12.358Z,25.83
2023-02-08T08:29:40.668Z,21.27
2023-02-08T08:32:11.747Z,22.63
2023-02-08T08:34:40.275Z,24.17
2023-02-08T08:37:08.628Z,21.30
2023-02-08T08:39:37.257Z,22.10
2023-02-08T08:42:05.869Z,27.03
2023-02-08T08:44:35.637Z,22.17
2023-02-08T08:47:03.922Z,23.00
2023-02-08T08:49:32.404Z,22.23
2023-02-08T08:52:00.671Z,23.97
2023-02-08T08:54:28.932Z,26.97
2023-02-08T08:56:57.123Z,23.37
2023-02-08T08:59:25.508Z,23.17
2023-02-08T09:01:55.456Z,25.47
2023-02-08T09:04:23.931Z,26.00
2023-02-08T09:06:53.854Z,21.73
2023-02-08T09:09:23.305Z,19.43
2023-02-08T09:11:51.916Z,19.57
2023-02-08T09:14:20.251Z,20.73
2023-02-08T09:16:49.249Z,22.60
2023-02-08T09:19:18.910Z,21.73
2023-02-08T09:21:47.462Z,22.10
2023-02-08T09:24:15.748Z,19.37
2023-02-08T09:26:45.837Z,23.40
2023-02-08T09:29:14.144Z,23.40
2023-02-08T09:31:42.852Z,18.90
2023-02-08T09:34:11.824Z,21.87
2023-02-08T09:36:42.624Z,19.63
2023-02-08T09:39:15.241Z,18.80
2023-02-08T09:42:08.818Z,18.90
2023-02-08T09:44:51.356Z,23.37
2023-02-08T09:47:24.641Z,20.70
2023-02-08T09:50:03.199Z,23.47
2023-02-08T09:52:39.576Z,22.47
2023-02-08T09:55:22.906Z,19.07
2023-02-08T09:57:54.895Z,23.10
2023-02-08T10:00:33.203Z,19.67
2023-02-08T10:03:03.322Z,21.83
2023-02-08T10:05:32.807Z,20.13
2023-02-08T10:08:03.467Z,23.27
2023-02-08T10:10:45.160Z,20.03
2023-02-08T10:13:41.073Z,20.63
2023-02-08T10:16:22.740Z,21.67
2023-02-08T10:19:03.810Z,20.93
2023-02-08T10:21:49.790Z,19.47
2023-02-08T10:24:49.598Z,18.80
2023-02-08T10:27:24.845Z,19.80
2023-02-08T10:30:22.302Z,19.83
2023-02-08T10:33:02.565Z,21.30
2023-02-08T10:35:37.304Z,19.50
2023-02-08T10:38:25.488Z,19.27
2023-02-08T10:40:59.805Z,16.40
2023-02-08T10:43:40.310Z,16.90
2023-02-08T10:46:17.976Z,18.17
2023-02-08T10:49:00.047Z,18.77
2023-02-08T10:51:29.870Z,17.20
2023-02-08T10:53:58.845Z,18.83
2023-02-08T10:56:41.050Z,15.17
2023-02-08T10:59:21.356Z,17.97
2023-02-08T11:01:51.144Z,17.87
2023-02-08T11:04:19.743Z,17.33
2023-02-08T11:06:50.422Z,17.27
2023-02-08T11:09:25.217Z,17.17
2023-02-08T11:11:55.782Z,15.83
2023-02-08T11:14:40.908Z,16.00
2023-02-08T11:17:27.643Z,18.47
2023-02-08T11:19:56.690Z,16.73
2023-02-08T11:22:28.293Z,16.47
2023-02-08T11:25:00.439Z,16.43
2023-02-08T11:27:36.676Z,17.23
2023-02-08T11:30:24.765Z,15.70
2023-02-08T11:33:18.500Z,15.87
2023-02-08T11:35:58.464Z,17.50
2023-02-08T11:38:28.573Z,15.63
2023-02-08T11:40:59.892Z,17.90
2023-02-08T11:43:32.489Z,16.97
2023-02-08T11:46:02.516Z,17.00
2023-02-08T11:48:44.566Z,15.87
2023-02-08T11:51:23.760Z,15.67
2023-02-08T11:53:52.364Z,18.43
2023-02-08T11:56:23.266Z,15.83
2023-02-08T11:59:07.660Z,17.10
2023-02-08T12:01:39.289Z,16.47
2023-02-08T12:04:11.614Z,15.60
2023-02-08T12:07:19.745Z,16.37
2023-02-08T12:10:18.100Z,14.60
2023-02-08T12:13:02.413Z,15.57
2023-02-08T12:15:57.419Z,16.77
2023-02-08T12:18:52.358Z,15.10
2023-02-08T12:21:26.747Z,14.40
2023-02-08T12:23:58.649Z,16.80
2023-02-08T12:26:53.962Z,16.93
2023-02-08T12:29:47.375Z,15.50
2023-02-08T12:32:42.465Z,14.33
2023-02-08T12:36:03.190Z,14.20
2023-02-08T12:39:27.417Z,16.80
2023-02-08T12:42:25.891Z,15.43
2023-02-08T12:45:32.903Z,15.17
2023-02-08T12:48:19.166Z,18.23
2023-02-08T12:50:54.712Z,16.27
2023-02-08T12:53:30.972Z,16.20
2023-02-08T12:56:03.526Z,14.03
2023-02-08T12:58:36.737Z,14.37
2023-02-08T13:01:13.192Z,15.43
2023-02-08T13:03:49.452Z,12.70
2023-02-08T13:06:23.355Z,14.93
2023-02-08T13:08:58.856Z,17.27
2023-02-08T13:11:37.138Z,15.43
2023-02-08T13:14:10.959Z,13.80
2023-02-08T13:16:44.868Z,12.53
2023-02-08T13:19:27.735Z,15.90
2023-02-08T13:21:56.540Z,14.07
2023-02-08T13:24:32.987Z,15.07
2023-02-08T13:27:01.289Z,15.07
2023-02-08T13:29:30.961Z,15.27
2023-02-08T13:32:04.775Z,18.47
2023-02-08T13:34:39.583Z,14.90
2023-02-08T13:37:25.174Z,15.27
2023-02-08T13:40:03.179Z,14.80
2023-02-08T13:42:39.684Z,43.63
2023-02-08T13:45:10.846Z,25.43
2023-02-08T13:47:47.542Z,41.67
2023-02-08T13:50:47.733Z,19.77
2023-02-08T13:53:17.532Z,17.70
2023-02-08T13:55:59.373Z,17.13
2023-02-08T13:59:01.382Z,15.13
2023-02-08T14:01:31.771Z,15.97
2023-02-08T14:04:32.867Z,13.50
2023-02-08T14:07:17.589Z,14.73
2023-02-08T14:09:54.996Z,17.13
2023-02-08T14:12:28.980Z,13.73
2023-02-08T14:15:23.571Z,15.40
2023-02-08T14:17:58.225Z,18.20
2023-02-08T14:20:32.129Z,15.27
2023-02-08T14:23:04.815Z,15.07
2023-02-08T14:25:43.583Z,13.00
2023-02-08T14:28:28.890Z,15.40
2023-02-08T14:31:00.349Z,14.73
2023-02-08T14:33:34.300Z,18.00
2023-02-08T14:36:07.279Z,16.97
2023-02-08T14:39:09.830Z,34.67
2023-02-08T14:41:57.238Z,22.37
2023-02-08T14:45:03.762Z,34.70
2023-02-08T14:48:21.344Z,19.10
2023-02-08T14:51:03.984Z,14.07
2023-02-08T14:53:44.271Z,17.97
2023-02-08T14:56:24.589Z,19.20
2023-02-08T14:58:57.339Z,14.67
2023-02-08T15:01:44.581Z,15.13
2023-02-08T15:04:14.279Z,14.00
2023-02-08T15:07:12.205Z,13.10
2023-02-08T15:09:43.282Z,14.77
2023-02-08T15:12:18.796Z,13.63
2023-02-08T15:14:47.395Z,13.60
2023-02-08T15:17:32.455Z,18.30
2023-02-08T15:20:02.354Z,15.60
2023-02-08T15:22:36.948Z,12.90
2023-02-08T15:25:24.056Z,13.23
2023-02-08T15:27:56.803Z,14.03
2023-02-08T15:30:31.644Z,16.43
2023-02-08T15:33:01.067Z,16.07
2023-02-08T15:35:33.367Z,14.20
2023-02-08T15:38:05.127Z,15.07
2023-02-08T15:40:36.115Z,17.40
2023-02-08T15:43:14.507Z,14.93
2023-02-08T15:45:42.832Z,12.57
2023-02-08T15:48:13.939Z,13.03
2023-02-08T15:50:43.048Z,14.00
2023-02-08T15:53:16.666Z,11.17
2023-02-08T15:55:50.456Z,12.07
2023-02-08T15:58:30.105Z,10.90
2023-02-08T16:01:00.953Z,10.30
2023-02-08T16:03:31.029Z,12.03
2023-02-08T16:06:02.163Z,11.37
2023-02-08T16:08:34.148Z,8.63
2023-02-08T16:11:07.116Z,11.40
2023-02-08T16:13:40.244Z,7.40
2023-02-08T16:16:22.685Z,7.53
2023-02-08T16:18:59.438Z,7.33
2023-02-08T16:21:41.523Z,12.30
2023-02-08T16:24:26.302Z,6.77
2023-02-08T16:27:05.989Z,10.57
2023-02-08T16:29:39.124Z,17.13
2023-02-08T16:32:19.112Z,10.97
2023-02-08T16:34:47.890Z,7.17
2023-02-08T16:37:27.420Z,8.47
2023-02-08T16:39:58.225Z,7.57
2023-02-08T16:42:30.724Z,5.23
2023-02-08T16:45:16.059Z,6.70
2023-02-08T16:47:49.274Z,7.73
2023-02-08T16:50:20.141Z,8.30
2023-02-08T16:52:52.664Z,12.97
2023-02-08T16:55:23.561Z,7.40
2023-02-08T16:57:54.212Z,9.40
2023-02-08T17:00:27.265Z,20.73
2023-02-08T17:02:57.200Z,9.80
2023-02-08T17:05:28.782Z,9.20
2023-02-08T17:07:57.560Z,12.23
2023-02-08T17:10:29.187Z,9.63
2023-02-08T17:13:17.058Z,8.77
2023-02-08T17:15:49.687Z,6.50
2023-02-08T17:18:18.096Z,5.63
2023-02-08T17:20:46.902Z,10.63
2023-02-08T17:23:16.326Z,13.00
2023-02-08T17:25:45.203Z,28.97
2023-02-08T17:28:19.381Z,15.70
2023-02-08T17:30:50.370Z,16.80
2023-02-08T17:33:21.639Z,9.00
2023-02-08T17:35:51.941Z,12.67
2023-02-08T17:38:21.444Z,11.53
2023-02-08T17:40:50.155Z,8.43
2023-02-08T17:43:18.965Z,12.20
2023-02-08T17:45:48.547Z,12.13
2023-02-08T17:48:17.375Z,13.57
2023-02-08T17:50:50.841Z,18.77
2023-02-08T17:53:19.700Z,7.47
2023-02-08T17:55:48.292Z,9.23
2023-02-08T17:58:17.616Z,8.17
2023-02-08T18:00:45.907Z,7.00
2023-02-08T18:03:17.238Z,7.80
2023-02-08T18:05:45.580Z,6.53
2023-02-08T18:08:13.833Z,6.93
2023-02-08T18:10:42.664Z,7.63
2023-02-08T18:13:11.125Z,8.07
2023-02-08T18:15:39.465Z,8.17
2023-02-08T18:18:07.792Z,9.00
2023-02-08T18:20:37.449Z,7.93
2023-02-08T18:23:05.699Z,6.07
2023-02-08T18:25:34.037Z,8.33
2023-02-08T18:28:02.304Z,6.60
2023-02-08T18:30:30.784Z,6.23
2023-02-08T18:32:59.108Z,8.10
2023-02-08T18:35:27.383Z,6.57
2023-02-08T18:37:56.976Z,4.93
2023-02-08T18:40:25.251Z,6.67
2023-02-08T18:42:53.489Z,7.67
2023-02-08T18:45:21.921Z,6.93
2023-02-08T18:47:50.165Z,8.23
2023-02-08T18:50:18.588Z,8.03
2023-02-08T18:52:46.842Z,6.90
2023-02-08T18:55:16.673Z,7.87
2023-02-08T18:57:48.161Z,6.73
2023-02-08T19:00:17.641Z,5.93
2023-02-08T19:02:46.489Z,6.60
2023-02-08T19:05:14.763Z,8.63
2023-02-08T19:07:43.018Z,9.20
2023-02-08T19:10:11.581Z,11.87
2023-02-08T19:12:41.691Z,6.73
2023-02-08T19:15:10.822Z,8.70
2023-02-08T19:17:39.221Z,9.30
2023-02-08T19:20:09.227Z,18.90
2023-02-08T19:22:37.461Z,23.33
2023-02-08T19:25:06.429Z,18.80
2023-02-08T19:27:34.684Z,19.80
2023-02-08T19:30:05.802Z,16.03
2023-02-08T19:32:34.071Z,21.60
2023-02-08T19:35:02.359Z,25.87
2023-02-08T19:37:30.634Z,19.37
2023-02-08T19:39:58.936Z,14.73
2023-02-08T19:42:27.227Z,12.87
2023-02-08T19:44:55.536Z,8.13
2023-02-08T19:47:43.420Z,7.50
2023-02-08T19:50:15.507Z,8.20
2023-02-08T19:52:43.770Z,7.20
2023-02-08T19:55:12.236Z,7.27
2023-02-08T19:57:41.121Z,6.13
2023-02-08T20:00:22.415Z,7.87
2023-02-08T20:02:53.162Z,6.17
2023-02-08T20:05:21.493Z,5.03
2023-02-08T20:07:49.718Z,6.63
2023-02-08T20:10:18.088Z,7.10
2023-02-08T20:12:46.366Z,6.63
2023-02-08T20:15:14.578Z,9.33
2023-02-08T20:17:44.097Z,6.30
2023-02-08T20:20:14.029Z,6.73
2023-02-08T20:22:42.342Z,8.17
2023-02-08T20:25:10.587Z,6.57
2023-02-08T20:27:38.868Z,8.27
2023-02-08T20:30:08.748Z,7.60
2023-02-08T20:32:36.985Z,5.90
2023-02-08T20:35:05.533Z,11.10
2023-02-08T20:37:35.330Z,7.27
2023-02-08T20:40:04.040Z,10.00
2023-02-08T20:42:32.493Z,7.40
2023-02-08T20:45:00.740Z,8.20
2023-02-08T20:47:31.865Z,6.97
2023-02-08T20:50:04.992Z,10.23
2023-02-08T20:52:39.971Z,10.33
2023-02-08T20:55:09.665Z,10.37
2023-02-08T20:57:37.975Z,8.00
2023-02-08T21:00:07.686Z,15.13
2023-02-08T21:02:35.996Z,11.40
2023-02-08T21:05:04.286Z,10.33
2023-02-08T21:07:32.515Z,8.23
2023-02-08T21:10:03.942Z,6.93
2023-02-08T21:12:33.456Z,8.27
2023-02-08T21:15:01.898Z,9.60
2023-02-08T21:17:30.597Z,7.73
2023-02-08T21:19:58.882Z,9.67
2023-02-08T21:22:27.477Z,8.80
2023-02-08T21:24:56.121Z,7.70
2023-02-08T21:27:25.780Z,6.83
2023-02-08T21:29:54.049Z,9.50
2023-02-08T21:32:22.344Z,9.73
2023-02-08T21:34:50.960Z,8.60
2023-02-08T21:37:19.279Z,9.00
2023-02-08T21:39:47.542Z,9.70
2023-02-08T21:42:15.894Z,9.87
2023-02-08T21:44:45.523Z,7.07
2023-02-08T21:47:13.892Z,7.13
2023-02-08T21:49:59.697Z,9.30
2023-02-08T21:52:45.558Z,7.33
2023-02-08T21:55:13.941Z,8.63
2023-02-08T21:57:42.221Z,9.33
2023-02-08T22:00:14.200Z,11.50
2023-02-08T22:02:43.473Z,14.40
2023-02-08T22:05:29.160Z,11.60
2023-02-08T22:08:00.386Z,15.40
2023-02-08T22:10:31.454Z,13.47
2023-02-08T22:13:00.228Z,13.60
2023-02-08T22:15:30.869Z,12.17
2023-02-08T22:18:02.487Z,8.30
2023-02-08T22:20:31.593Z,6.43
2023-02-08T22:22:59.875Z,9.93
2023-02-08T22:25:28.196Z,10.87
2023-02-08T22:27:56.575Z,11.03
2023-02-08T22:30:25.744Z,9.77
2023-02-08T22:32:55.524Z,9.70
2023-02-08T22:35:23.789Z,11.60
2023-02-08T22:37:52.077Z,8.13
2023-02-08T22:40:21.083Z,6.70
2023-02-08T22:42:49.346Z,6.67
2023-02-08T22:45:17.661Z,9.97
2023-02-08T22:47:46.273Z,7.13
2023-02-08T22:50:16.439Z,8.73
2023-02-08T22:52:44.710Z,7.77
2023-02-08T22:55:12.988Z,7.20
2023-02-08T22:57:43.434Z,8.03
2023-02-08T23:00:15.204Z,7.23
2023-02-08T23:02:43.532Z,7.87
2023-02-08T23:05:11.859Z,9.50
2023-02-08T23:07:41.538Z,8.40
2023-02-08T23:10:11.923Z,7.70
2023-02-08T23:12:40.643Z,9.30
2023-02-08T23:15:11.505Z,7.77
2023-02-08T23:17:39.759Z,7.13
2023-02-08T23:20:09.313Z,10.07
2023-02-08T23:22:40.061Z,9.63
2023-02-08T23:25:08.910Z,8.47
2023-02-08T23:27:37.231Z,7.20
2023-02-08T23:30:09.434Z,7.10
2023-02-08T23:32:38.374Z,10.07
2023-02-08T23:35:07.784Z,7.70
2023-02-08T23:37:36.104Z,7.10
2023-02-08T23:40:07.216Z,8.17
2023-02-08T23:42:35.486Z,7.50
2023-02-08T23:45:03.893Z,8.43
2023-02-08T23:47:32.698Z,7.77
2023-02-08T23:50:01.078Z,8.93
2023-02-08T23:52:29.338Z,6.73
2023-02-08T23:54:57.682Z,8.97
2023-02-08T23:57:28.321Z,5.90
2023-02-08T23:59:56.596Z,7.73
